Airfield :
LOGIN :

Register | Disclaimer

   EN    FR    IT 

 










Legend :    VFR   Marginal VFR   IFR   Intensive IFR   Very Intensive IFR
Visi :
Ceiling :
>= 8 km
>= 3000ft
5 to 8 km
1000 to 3000 ft
1500m to 5 km
500 to 1000 ft
800 to 1500m
200 to 500 ft
< 800m
< 200 ft
Symbols :   Thunderstorms  Fog  Heavy snow  Heavy precipitations  Wind > 20 kt
SIGMETs :     Misc.  Thunderstorms  Icing  Turbulence  Mountain Waves  Volcanic Ashes






- Airport Elevation : 512 ft
- IATA code : URO


LFOP - Rouen Vallée de Seine

CURRENT METAR :
  • 190130Z AUTO 28004KT 5000 BR NSC 15/15 Q1013

EXPIRED METARs :
  • 190100Z AUTO 29004KT 260V320 6000 -RA SCT002/// SCT019/// BKN046/// ///TCU 16/15 Q1013
  • 190030Z AUTO 28003KT 4800 -RA BR FEW002/// OVC049/// ///TCU 16/15 Q1013
  • 190000Z AUTO 27002KT 6000 FEW041/// BKN048/// BKN054/// ///TCU 16/15 Q1013
  • 182330Z AUTO 30002KT 8000 ///TCU 16/15 Q1013
  • 182300Z AUTO 29003KT 6000 SCT047/// OVC056/// ///TCU 16/15 Q1013

TAF TAF LFOP
Valid from the 18 at 18:00 until the 19 at 18:00 UTC


181700Z 1818/1918 VRB03KT CAVOK
TEMPO 1818/1821 SHRA BKN060CB
BECMG 1903/1906 BKN003
BECMG 1909/1912 29010KT BKN020
PROB30
TEMPO 1915/1918 4000 SHRA BKN040CB
ATIS : +33 2 35 80 80 34
Met : +33 2 32 86 52 80



MET'MAP, your aeronautical weather chart ! - Copyright ORBIFLY December 2007 - Disclaimer

ORBIFLY MET'MAP TEAM :

Programming & Development : Alexandra Zaïnal
Concept & original design : Baudouin d'Aumeries
Assistance for programming : Marc-Olivier Méhu
Technical & hardware support : Manuel Goepfert

Contact : metmap@orbifly.com




SOURCES & CREDITS :

   NOAA